VQTMJ87 KLAX-KLAS
Flight info
| Callsign | VQTMJ87 |
|---|---|
| Flight time | N/A |
| Altitude | 21000 |
| Route | SKYRL2 VALEY SLAPP SSETH VVERA SSETH DAG CRESO5 |
| Aircraft | BE90/L-VGDW/C |
Departure
| Time | 2026-04-22 16:22 |
|---|---|
| Airport | Los Angeles International Airport (KLAX) |
Arrival
| Time | N/A |
|---|---|
| Airport | Harry Reid International Airport (KLAS) |
| Time | Latitude | Longitude | Altitude | Speed | Heading |
|---|---|---|---|---|---|
| 2026-04-22 15:58 | 33.94305 | -118.38419 | 121 ft | 0 kts | 314° |
| 2026-04-22 16:09 | 33.94306 | -118.38421 | 121 ft | 2 kts | 295° |
| 2026-04-22 16:09 | 33.94290 | -118.38424 | 120 ft | 0 kts | 122° |
| 2026-04-22 16:16 | 33.94249 | -118.38343 | 121 ft | 17 kts | 147° |
| 2026-04-22 16:16 | 33.94172 | -118.38334 | 121 ft | 0 kts | 191° |
| 2026-04-22 16:17 | 33.94171 | -118.38334 | 121 ft | 0 kts | 191° |
| 2026-04-22 16:18 | 33.94169 | -118.38334 | 121 ft | 5 kts | 189° |
| 2026-04-22 16:18 | 33.94117 | -118.38235 | 121 ft | 27 kts | 94° |
| 2026-04-22 16:18 | 33.94087 | -118.38029 | 121 ft | 18 kts | 86° |
| 2026-04-22 16:19 | 33.94080 | -118.38009 | 118 ft | 0 kts | 165° |
| 2026-04-22 16:20 | 33.94036 | -118.37993 | 121 ft | 18 kts | 167° |
| 2026-04-22 16:20 | 33.93983 | -118.38010 | 119 ft | 11 kts | 238° |
| 2026-04-22 16:20 | 33.93976 | -118.38097 | 121 ft | 0 kts | 261° |
| 2026-04-22 16:21 | 33.93960 | -118.38226 | 121 ft | 45 kts | 261° |
| 2026-04-22 16:21 | 33.93893 | -118.38845 | 120 ft | 102 kts | 263° |
| 2026-04-22 16:22 | 33.93665 | -118.40983 | 600 ft | 141 kts | 261° |
| 2026-04-22 16:22 | 33.93521 | -118.42177 | 1004 ft | 149 kts | 261° |
| 2026-04-22 16:22 | 33.93373 | -118.43444 | 1419 ft | 155 kts | 261° |
| 2026-04-22 16:23 | 33.93006 | -118.46042 | 2177 ft | 159 kts | 262° |
| 2026-04-22 16:23 | 33.93105 | -118.47371 | 2572 ft | 160 kts | 278° |
| 2026-04-22 16:23 | 33.93485 | -118.48625 | 2956 ft | 161 kts | 301° |
| 2026-04-22 16:24 | 33.94394 | -118.49343 | 3341 ft | 164 kts | 353° |
| 2026-04-22 16:24 | 33.96709 | -118.49243 | 4103 ft | 169 kts | 6° |
| 2026-04-22 16:24 | 33.97866 | -118.49042 | 4480 ft | 171 kts | 6° |
| 2026-04-22 16:25 | 33.99040 | -118.48831 | 4873 ft | 170 kts | 6° |
| 2026-04-22 16:25 | 34.01424 | -118.48424 | 5620 ft | 177 kts | 3° |
| 2026-04-22 16:25 | 34.02655 | -118.48248 | 5983 ft | 179 kts | 2° |
| 2026-04-22 16:26 | 34.03895 | -118.48073 | 6358 ft | 179 kts | 2° |
| 2026-04-22 16:26 | 34.05121 | -118.47891 | 6723 ft | 181 kts | 2° |
| 2026-04-22 16:26 | 34.06383 | -118.47693 | 7079 ft | 182 kts | 2° |
| 2026-04-22 16:26 | 34.07650 | -118.47510 | 7439 ft | 183 kts | 359° |
| 2026-04-22 16:27 | 34.08908 | -118.47365 | 7802 ft | 185 kts | 0° |
| 2026-04-22 16:27 | 34.10205 | -118.47191 | 8167 ft | 187 kts | 0° |
| 2026-04-22 16:27 | 34.11508 | -118.47010 | 8534 ft | 188 kts | 0° |
| 2026-04-22 16:27 | 34.12815 | -118.46830 | 8917 ft | 189 kts | 360° |
| 2026-04-22 16:28 | 34.14111 | -118.46652 | 9297 ft | 191 kts | 359° |
| 2026-04-22 16:28 | 34.15441 | -118.46469 | 9685 ft | 192 kts | 359° |
| 2026-04-22 16:28 | 34.16778 | -118.46285 | 10077 ft | 194 kts | 359° |
| 2026-04-22 16:28 | 34.18109 | -118.46100 | 10430 ft | 195 kts | 359° |
| 2026-04-22 16:29 | 34.19468 | -118.45913 | 10785 ft | 197 kts | 358° |
| 2026-04-22 16:29 | 34.20844 | -118.45724 | 11148 ft | 199 kts | 358° |
| 2026-04-22 16:29 | 34.22224 | -118.45533 | 11513 ft | 201 kts | 358° |
| 2026-04-22 16:29 | 34.23622 | -118.45341 | 11887 ft | 203 kts | 358° |
| 2026-04-22 16:30 | 34.24553 | -118.45199 | 12146 ft | 205 kts | 2° |
| 2026-04-22 16:30 | 34.26347 | -118.44282 | 12653 ft | 214 kts | 19° |
| 2026-04-22 16:30 | 34.27712 | -118.43519 | 13041 ft | 216 kts | 17° |
| 2026-04-22 16:30 | 34.29096 | -118.42767 | 13430 ft | 219 kts | 17° |
| 2026-04-22 16:31 | 34.30495 | -118.41993 | 13825 ft | 222 kts | 18° |
| 2026-04-22 16:31 | 34.31897 | -118.41206 | 14199 ft | 221 kts | 18° |
| 2026-04-22 16:31 | 34.33273 | -118.40443 | 14546 ft | 219 kts | 17° |
| 2026-04-22 16:31 | 34.34662 | -118.39680 | 14897 ft | 218 kts | 17° |
| 2026-04-22 16:32 | 34.36050 | -118.38915 | 15239 ft | 222 kts | 17° |
| 2026-04-22 16:32 | 34.37466 | -118.38130 | 15605 ft | 224 kts | 17° |
| 2026-04-22 16:32 | 34.38895 | -118.37339 | 15965 ft | 227 kts | 17° |
| 2026-04-22 16:32 | 34.40322 | -118.36548 | 16327 ft | 230 kts | 17° |
| 2026-04-22 16:33 | 34.41788 | -118.35736 | 16703 ft | 232 kts | 17° |
| 2026-04-22 16:33 | 34.43257 | -118.34917 | 17076 ft | 233 kts | 17° |
| 2026-04-22 16:33 | 34.44744 | -118.34094 | 17457 ft | 235 kts | 17° |
| 2026-04-22 16:33 | 34.46117 | -118.33013 | 17843 ft | 242 kts | 50° |
| 2026-04-22 16:34 | 34.46870 | -118.31202 | 18252 ft | 241 kts | 77° |
| 2026-04-22 16:34 | 34.47322 | -118.29259 | 18597 ft | 243 kts | 79° |
| 2026-04-22 16:34 | 34.47764 | -118.27275 | 18947 ft | 245 kts | 79° |
| 2026-04-22 16:34 | 34.48221 | -118.25263 | 19298 ft | 248 kts | 78° |
| 2026-04-22 16:35 | 34.48688 | -118.23237 | 19645 ft | 250 kts | 78° |
| 2026-04-22 16:35 | 34.49158 | -118.21196 | 20003 ft | 252 kts | 78° |
| 2026-04-22 16:35 | 34.49626 | -118.19144 | 20365 ft | 254 kts | 78° |
| 2026-04-22 16:35 | 34.50098 | -118.17090 | 20731 ft | 256 kts | 78° |
| 2026-04-22 16:36 | 34.50579 | -118.14997 | 21057 ft | 261 kts | 78° |
| 2026-04-22 16:36 | 34.51076 | -118.12817 | 21160 ft | 275 kts | 78° |
| 2026-04-22 16:36 | 34.51593 | -118.10537 | 21189 ft | 285 kts | 78° |
| 2026-04-22 16:36 | 34.52135 | -118.08175 | 21197 ft | 293 kts | 78° |
| 2026-04-22 16:37 | 34.52687 | -118.05771 | 21194 ft | 298 kts | 78° |
| 2026-04-22 16:37 | 34.53243 | -118.03335 | 21191 ft | 300 kts | 78° |
| 2026-04-22 16:37 | 34.53795 | -118.00914 | 21193 ft | 302 kts | 78° |
| 2026-04-22 16:37 | 34.54356 | -117.98450 | 21191 ft | 304 kts | 78° |
| 2026-04-22 16:38 | 34.54921 | -117.95967 | 21189 ft | 306 kts | 78° |
| 2026-04-22 16:38 | 34.55488 | -117.93472 | 21184 ft | 307 kts | 78° |
| 2026-04-22 16:38 | 34.56059 | -117.90959 | 21182 ft | 308 kts | 78° |
| 2026-04-22 16:38 | 34.56630 | -117.88453 | 21179 ft | 309 kts | 78° |
| 2026-04-22 16:39 | 34.57199 | -117.85937 | 21171 ft | 310 kts | 78° |
| 2026-04-22 16:39 | 34.57771 | -117.83421 | 21167 ft | 310 kts | 78° |
| 2026-04-22 16:39 | 34.58342 | -117.80884 | 21164 ft | 310 kts | 78° |
| 2026-04-22 16:39 | 34.58902 | -117.78392 | 21158 ft | 310 kts | 78° |
| 2026-04-22 16:40 | 34.59472 | -117.75869 | 21152 ft | 310 kts | 78° |
| 2026-04-22 16:40 | 34.59965 | -117.73334 | 21146 ft | 307 kts | 83° |
| 2026-04-22 16:40 | 34.60987 | -117.68263 | 21161 ft | 309 kts | 80° |
| 2026-04-22 16:41 | 34.61477 | -117.65756 | 21170 ft | 308 kts | 82° |
| 2026-04-22 16:41 | 34.61943 | -117.63215 | 21176 ft | 308 kts | 82° |
| 2026-04-22 16:41 | 34.62426 | -117.60675 | 21180 ft | 308 kts | 81° |
| 2026-04-22 16:41 | 34.62920 | -117.58142 | 21186 ft | 308 kts | 81° |
| 2026-04-22 16:42 | 34.63399 | -117.55630 | 21194 ft | 307 kts | 82° |
| 2026-04-22 16:42 | 34.63879 | -117.53091 | 21197 ft | 308 kts | 82° |
| 2026-04-22 16:42 | 34.64363 | -117.50560 | 21201 ft | 307 kts | 81° |
| 2026-04-22 16:42 | 34.64846 | -117.48034 | 21204 ft | 307 kts | 82° |
| 2026-04-22 16:43 | 34.65326 | -117.45508 | 21209 ft | 306 kts | 82° |
| 2026-04-22 16:43 | 34.65807 | -117.42974 | 21208 ft | 306 kts | 82° |
| 2026-04-22 16:43 | 34.66280 | -117.40477 | 21207 ft | 306 kts | 82° |
| 2026-04-22 16:43 | 34.66757 | -117.37960 | 21205 ft | 306 kts | 82° |
| 2026-04-22 16:44 | 34.67235 | -117.35435 | 21204 ft | 305 kts | 82° |
| 2026-04-22 16:44 | 34.67711 | -117.32918 | 21203 ft | 305 kts | 82° |
| 2026-04-22 16:44 | 34.68187 | -117.30396 | 21199 ft | 305 kts | 82° |
| 2026-04-22 16:44 | 34.68655 | -117.27915 | 21192 ft | 305 kts | 82° |
| 2026-04-22 16:45 | 34.69129 | -117.25397 | 21186 ft | 305 kts | 82° |
| 2026-04-22 16:45 | 34.69603 | -117.22885 | 21177 ft | 304 kts | 82° |
| 2026-04-22 16:45 | 34.70073 | -117.20377 | 21171 ft | 304 kts | 82° |
| 2026-04-22 16:45 | 34.70545 | -117.17863 | 21166 ft | 305 kts | 82° |
| 2026-04-22 16:46 | 34.70856 | -117.16202 | 21156 ft | 304 kts | 82° |
| 2026-04-22 16:46 | 34.71324 | -117.13697 | 21150 ft | 304 kts | 82° |
| 2026-04-22 16:46 | 34.71948 | -117.10367 | 21140 ft | 304 kts | 82° |
| 2026-04-22 16:46 | 34.72265 | -117.08673 | 21132 ft | 304 kts | 83° |
| 2026-04-22 16:47 | 34.72733 | -117.06164 | 21118 ft | 304 kts | 83° |
| 2026-04-22 16:47 | 34.73195 | -117.03689 | 21117 ft | 303 kts | 83° |
| 2026-04-22 16:47 | 34.73661 | -117.01187 | 21118 ft | 303 kts | 83° |
| 2026-04-22 16:47 | 34.74127 | -116.98683 | 21125 ft | 303 kts | 83° |
| 2026-04-22 16:48 | 34.74590 | -116.96186 | 21127 ft | 302 kts | 83° |
| 2026-04-22 16:48 | 34.75293 | -116.93776 | 21139 ft | 307 kts | 60° |
| 2026-04-22 16:48 | 34.76476 | -116.91613 | 21145 ft | 307 kts | 58° |
| 2026-04-22 16:48 | 34.77656 | -116.89471 | 21151 ft | 308 kts | 58° |
| 2026-04-22 16:49 | 34.78839 | -116.87285 | 21151 ft | 308 kts | 59° |
| 2026-04-22 16:49 | 34.80025 | -116.85095 | 21152 ft | 308 kts | 58° |
| 2026-04-22 16:49 | 34.81197 | -116.82941 | 21151 ft | 308 kts | 58° |
| 2026-04-22 16:49 | 34.82382 | -116.80762 | 21153 ft | 308 kts | 59° |
| 2026-04-22 16:50 | 34.83564 | -116.78582 | 21151 ft | 308 kts | 59° |
| 2026-04-22 16:50 | 34.84727 | -116.76434 | 21151 ft | 307 kts | 59° |
| 2026-04-22 16:50 | 34.85909 | -116.74254 | 21153 ft | 308 kts | 59° |
| 2026-04-22 16:50 | 34.87090 | -116.72074 | 21150 ft | 308 kts | 59° |
| 2026-04-22 16:51 | 34.88267 | -116.69898 | 21154 ft | 307 kts | 59° |
| 2026-04-22 16:51 | 34.89445 | -116.67716 | 21149 ft | 307 kts | 59° |
| 2026-04-22 16:51 | 34.90624 | -116.65536 | 21146 ft | 307 kts | 59° |
| 2026-04-22 16:51 | 34.91800 | -116.63361 | 21140 ft | 307 kts | 59° |
| 2026-04-22 16:52 | 34.92973 | -116.61187 | 21135 ft | 307 kts | 59° |
| 2026-04-22 16:52 | 34.94137 | -116.59030 | 21130 ft | 307 kts | 59° |
| 2026-04-22 16:52 | 34.95311 | -116.56851 | 21125 ft | 307 kts | 59° |
| 2026-04-22 16:52 | 34.96484 | -116.54672 | 21121 ft | 307 kts | 59° |
| 2026-04-22 16:53 | 34.97661 | -116.52490 | 21113 ft | 307 kts | 59° |
| 2026-04-22 16:53 | 34.98836 | -116.50307 | 21110 ft | 307 kts | 59° |
| 2026-04-22 16:53 | 34.99995 | -116.48151 | 21103 ft | 307 kts | 59° |
| 2026-04-22 16:53 | 35.01168 | -116.45968 | 21090 ft | 307 kts | 59° |
| 2026-04-22 16:54 | 35.02338 | -116.43789 | 21087 ft | 307 kts | 59° |
| 2026-04-22 16:54 | 35.03512 | -116.41605 | 21088 ft | 306 kts | 59° |
| 2026-04-22 16:54 | 35.04664 | -116.39455 | 21090 ft | 307 kts | 60° |
| 2026-04-22 16:54 | 35.05836 | -116.37268 | 21090 ft | 307 kts | 60° |
| 2026-04-22 16:55 | 35.07004 | -116.35089 | 21089 ft | 306 kts | 60° |
| 2026-04-22 16:55 | 35.08169 | -116.32915 | 21090 ft | 306 kts | 60° |
| 2026-04-22 16:55 | 35.09335 | -116.30734 | 21088 ft | 306 kts | 60° |
| 2026-04-22 16:55 | 35.10489 | -116.28580 | 21084 ft | 305 kts | 60° |
| 2026-04-22 16:56 | 35.11652 | -116.26400 | 21085 ft | 305 kts | 60° |
| 2026-04-22 16:56 | 35.12813 | -116.24227 | 21084 ft | 305 kts | 60° |
| 2026-04-22 16:56 | 35.13974 | -116.22053 | 21082 ft | 306 kts | 60° |
| 2026-04-22 16:56 | 35.15141 | -116.19866 | 21078 ft | 306 kts | 60° |
| 2026-04-22 16:57 | 35.16302 | -116.17687 | 21082 ft | 305 kts | 60° |
| 2026-04-22 16:57 | 35.17450 | -116.15535 | 21084 ft | 305 kts | 60° |
| 2026-04-22 16:57 | 35.18610 | -116.13354 | 21080 ft | 305 kts | 60° |
| 2026-04-22 16:57 | 35.19767 | -116.11181 | 21078 ft | 305 kts | 60° |
| 2026-04-22 16:58 | 35.20535 | -116.09740 | 21078 ft | 304 kts | 60° |
| 2026-04-22 16:58 | 35.22079 | -116.06834 | 21080 ft | 304 kts | 60° |
| 2026-04-22 16:58 | 35.23231 | -116.04663 | 21085 ft | 304 kts | 60° |
| 2026-04-22 16:58 | 35.24367 | -116.02523 | 21083 ft | 304 kts | 60° |
| 2026-04-22 16:59 | 35.25517 | -116.00360 | 21082 ft | 304 kts | 60° |
| 2026-04-22 16:59 | 35.26668 | -115.98189 | 21083 ft | 303 kts | 60° |
| 2026-04-22 16:59 | 35.27823 | -115.96011 | 21086 ft | 303 kts | 60° |
| 2026-04-22 16:59 | 35.28966 | -115.93849 | 21078 ft | 303 kts | 60° |
| 2026-04-22 17:00 | 35.30114 | -115.91669 | 20696 ft | 297 kts | 61° |
| 2026-04-22 17:00 | 35.32267 | -115.87603 | 19449 ft | 276 kts | 61° |
| 2026-04-22 17:00 | 35.33291 | -115.85663 | 18852 ft | 272 kts | 62° |
| 2026-04-22 17:01 | 35.34315 | -115.83721 | 18230 ft | 269 kts | 62° |
| 2026-04-22 17:01 | 35.35322 | -115.81813 | 17544 ft | 264 kts | 62° |
| 2026-04-22 17:01 | 35.36313 | -115.79938 | 16878 ft | 260 kts | 62° |
| 2026-04-22 17:01 | 35.37293 | -115.78077 | 16229 ft | 271 kts | 62° |
| 2026-04-22 17:02 | 35.38332 | -115.76092 | 15594 ft | 278 kts | 62° |
| 2026-04-22 17:02 | 35.39383 | -115.74104 | 14973 ft | 275 kts | 62° |
| 2026-04-22 17:02 | 35.40419 | -115.72143 | 14370 ft | 272 kts | 62° |
| 2026-04-22 17:02 | 35.41436 | -115.70212 | 13787 ft | 264 kts | 60° |
| 2026-04-22 17:03 | 35.42430 | -115.68317 | 13115 ft | 263 kts | 62° |
| 2026-04-22 17:03 | 35.43409 | -115.66454 | 12467 ft | 262 kts | 62° |
| 2026-04-22 17:03 | 35.44369 | -115.64626 | 12100 ft | 248 kts | 62° |
| 2026-04-22 17:03 | 35.45290 | -115.62882 | 12017 ft | 239 kts | 62° |
| 2026-04-22 17:04 | 35.46196 | -115.61152 | 12002 ft | 243 kts | 62° |
| 2026-04-22 17:04 | 35.47104 | -115.59414 | 12001 ft | 245 kts | 62° |
| 2026-04-22 17:04 | 35.48027 | -115.57652 | 12003 ft | 245 kts | 62° |
| 2026-04-22 17:04 | 35.48957 | -115.55877 | 11875 ft | 252 kts | 62° |
| 2026-04-22 17:05 | 35.49911 | -115.54052 | 11615 ft | 253 kts | 62° |
| 2026-04-22 17:05 | 35.50870 | -115.52264 | 11205 ft | 251 kts | 56° |
| 2026-04-22 17:05 | 35.52061 | -115.50679 | 10776 ft | 252 kts | 50° |
| 2026-04-22 17:05 | 35.53231 | -115.49121 | 10361 ft | 250 kts | 51° |
| 2026-04-22 17:06 | 35.54396 | -115.47539 | 9928 ft | 248 kts | 51° |
| 2026-04-22 17:06 | 35.55591 | -115.46029 | 9470 ft | 246 kts | 43° |
| 2026-04-22 17:06 | 35.56958 | -115.44767 | 9009 ft | 244 kts | 37° |
| 2026-04-22 17:06 | 35.58376 | -115.43630 | 8555 ft | 242 kts | 34° |
| 2026-04-22 17:07 | 35.59791 | -115.42528 | 8111 ft | 239 kts | 34° |
| 2026-04-22 17:07 | 35.61172 | -115.41459 | 7685 ft | 237 kts | 34° |
| 2026-04-22 17:07 | 35.62579 | -115.40373 | 7244 ft | 238 kts | 34° |
| 2026-04-22 17:07 | 35.63973 | -115.39296 | 7040 ft | 233 kts | 34° |
| 2026-04-22 17:08 | 35.65310 | -115.38265 | 7015 ft | 226 kts | 34° |
| 2026-04-22 17:08 | 35.66655 | -115.37230 | 7004 ft | 223 kts | 34° |
| 2026-04-22 17:08 | 35.67946 | -115.36237 | 7001 ft | 221 kts | 34° |
| 2026-04-22 17:08 | 35.69253 | -115.35234 | 6998 ft | 220 kts | 34° |
| 2026-04-22 17:09 | 35.70554 | -115.34230 | 6997 ft | 221 kts | 34° |
| 2026-04-22 17:09 | 35.71860 | -115.33216 | 6994 ft | 221 kts | 34° |
| 2026-04-22 17:09 | 35.72722 | -115.32546 | 7002 ft | 221 kts | 34° |
| 2026-04-22 17:09 | 35.74446 | -115.31202 | 6998 ft | 221 kts | 34° |
| 2026-04-22 17:10 | 35.75743 | -115.30183 | 6997 ft | 220 kts | 34° |
| 2026-04-22 17:10 | 35.76995 | -115.29099 | 6989 ft | 220 kts | 39° |
| 2026-04-22 17:10 | 35.78222 | -115.27960 | 7006 ft | 221 kts | 39° |
| 2026-04-22 17:10 | 35.79424 | -115.26829 | 6993 ft | 219 kts | 39° |
| 2026-04-22 17:11 | 35.80636 | -115.25686 | 7003 ft | 219 kts | 38° |
| 2026-04-22 17:11 | 35.81862 | -115.24548 | 7000 ft | 221 kts | 39° |
| 2026-04-22 17:11 | 35.83095 | -115.23403 | 6997 ft | 221 kts | 39° |
| 2026-04-22 17:11 | 35.84345 | -115.22300 | 6999 ft | 222 kts | 30° |
| 2026-04-22 17:12 | 35.85763 | -115.21541 | 6998 ft | 221 kts | 20° |
| 2026-04-22 17:12 | 35.87206 | -115.20875 | 6998 ft | 222 kts | 21° |
| 2026-04-22 17:12 | 35.88656 | -115.20204 | 7002 ft | 222 kts | 21° |
| 2026-04-22 17:12 | 35.90091 | -115.19537 | 7000 ft | 222 kts | 21° |
| 2026-04-22 17:13 | 35.91563 | -115.18846 | 6754 ft | 231 kts | 21° |
| 2026-04-22 17:13 | 35.93085 | -115.18124 | 6434 ft | 233 kts | 21° |
| 2026-04-22 17:13 | 35.94594 | -115.17426 | 6109 ft | 230 kts | 20° |
| 2026-04-22 17:13 | 35.96070 | -115.16745 | 5788 ft | 228 kts | 21° |
| 2026-04-22 17:14 | 35.97554 | -115.16048 | 5476 ft | 228 kts | 20° |
| 2026-04-22 17:14 | 35.99035 | -115.15359 | 5170 ft | 226 kts | 20° |
| 2026-04-22 17:14 | 36.00493 | -115.14705 | 5025 ft | 219 kts | 14° |
| 2026-04-22 17:14 | 36.02012 | -115.14535 | 4756 ft | 220 kts | 1° |
| 2026-04-22 17:15 | 36.03013 | -115.14494 | 4637 ft | 209 kts | 0° |
| 2026-04-22 17:15 | 36.04820 | -115.14548 | 4092 ft | 176 kts | 353° |
| 2026-04-22 17:15 | 36.05665 | -115.15215 | 4287 ft | 139 kts | 284° |
| 2026-04-22 17:15 | 36.05749 | -115.16334 | 4434 ft | 132 kts | 263° |
| 2026-04-22 17:16 | 36.05703 | -115.17592 | 4533 ft | 155 kts | 260° |
| 2026-04-22 17:16 | 36.05545 | -115.18975 | 4569 ft | 168 kts | 256° |
| 2026-04-22 17:16 | 36.05300 | -115.20349 | 4749 ft | 160 kts | 252° |
| 2026-04-22 17:16 | 36.05084 | -115.21662 | 4961 ft | 155 kts | 257° |